Time;durP1;ratioP1;P1;durP2;ratioP2;P2;SDS_P1;SDS_P2;PMS_P1;PMS_P2;Temp;Humidity;BMP_temperature;BMP_pressure;BME280_temperature;BME280_humidity;BME280_pressure;Samples;Min_cycle;Max_cycle;Signal;HPM_P1;HPM_P2
2022/05/08 00:01:01;;;;;;;;;;;;;;;-144.99;84.29;52382.88;5055355;28;20051;-60
2022/05/08 00:03:28;;;;;;;;;;;;;;;-144.99;84.86;52370.63;5049385;28;19931;-59
2022/05/08 00:05:54;;;;;;;;;;;;;;;-144.99;85.01;52397.13;5056100;28;19974;-59
2022/05/08 00:08:20;;;;;;;;;;;;;;;-144.99;85.07;52374.72;5050245;28;20449;-59
2022/05/08 00:10:47;;;;;;;;;;;;;;;-144.99;85.27;52368.59;5057661;28;19954;-58
2022/05/08 00:13:15;;;;;;;;;;;;;;;-144.99;85.54;52444.03;5053170;28;19940;-60
2022/05/08 00:15:41;;;;;;;;;;;;;;;-144.99;85.84;52431.78;5050155;28;20371;-60
2022/05/08 00:18:08;;;;;;;;;;;;;;;-144.99;86.03;52374.72;5048877;28;19936;-59
2022/05/08 00:20:34;;;;;;;;;;;;;;;-144.99;86.42;52382.88;5053832;28;20401;-59
2022/05/08 00:23:00;;;;;;;;;;;;;;;-144.99;86.92;52427.72;5054116;28;19939;-59
2022/05/08 00:25:27;;;;;;;;;;;;;;;-144.99;87.35;52391.03;5055328;28;19958;-60
2022/05/08 00:27:54;;;;;;;;;;;;;;;-144.99;87.53;52391.03;5053153;28;20315;-59
2022/05/08 00:30:22;;;;;;;;;;;;;;;-144.99;87.99;52427.72;5052278;28;19974;-59
2022/05/08 00:32:48;;;;;;;;;;;;;;;-144.99;88.04;52409.38;5057675;28;20308;-58
2022/05/08 00:35:14;;;;;;;;;;;;;;;-144.99;88.11;52407.31;5052785;28;19952;-59
2022/05/08 00:37:41;;;;;;;;;;;;;;;-144.99;88.32;52395.09;5056761;28;20046;-59
2022/05/08 00:40:07;;;;;;;;;;;;;;;-144.99;88.81;52378.78;5051402;28;19969;-59
2022/05/08 00:42:34;;;;;;;;;;;;;;;-144.99;88.53;52409.38;5059390;28;19946;-59
2022/05/08 00:45:00;;;;;;;;;;;;;;;-144.99;88.65;52374.72;5052697;28;19972;-59
2022/05/08 00:47:28;;;;;;;;;;;;;;;-144.99;88.67;52386.94;5051273;28;19970;-59
2022/05/08 00:49:54;;;;;;;;;;;;;;;-144.99;88.56;52393.06;5057728;28;19944;-59
2022/05/08 00:52:21;;;;;;;;;;;;;;;-144.99;89.19;52407.31;5058953;28;19970;-59
2022/05/08 00:54:47;;;;;;;;;;;;;;;-144.99;89.71;52370.63;5055704;28;19948;-59
2022/05/08 00:57:14;;;;;;;;;;;;;;;-144.99;89.77;52372.69;5065381;28;19967;-59
2022/05/08 00:59:40;;;;;;;;;;;;;;;-144.99;89.98;52431.78;5058034;28;20231;-58
2022/05/08 01:02:07;;;;;;;;;;;;;;;-144.99;89.67;52415.47;5061306;28;19950;-58
2022/05/08 01:04:34;;;;;;;;;;;;;;;-144.99;89.99;52386.94;5058642;28;19953;-58
2022/05/08 01:07:01;;;;;;;;;;;;;;;-144.99;90.21;52413.44;5062994;28;19971;-58
2022/05/08 01:09:28;;;;;;;;;;;;;;;-144.99;90.30;52419.56;5060296;28;19965;-58
2022/05/08 01:11:55;;;;;;;;;;;;;;;-144.99;90.96;52419.56;5053784;28;19973;-58
2022/05/08 01:14:22;;;;;;;;;;;;;;;-144.99;91.23;52407.31;5056316;28;19982;-57
2022/05/08 01:16:48;;;;;;;;;;;;;;;-144.99;91.36;52391.03;5062622;28;19965;-58
2022/05/08 01:19:14;;;;;;;;;;;;;;;-144.99;91.82;52407.31;5062569;28;19951;-58
2022/05/08 01:21:43;;;;;;;;;;;;;;;-144.99;91.90;52407.31;5058725;28;19968;-58
2022/05/08 01:24:09;;;;;;;;;;;;;;;-144.99;91.91;52386.94;5059756;28;20037;-58
2022/05/08 01:26:36;;;;;;;;;;;;;;;-144.99;92.01;52399.19;5059304;28;19974;-59
2022/05/08 01:29:03;;;;;;;;;;;;;;;-144.99;92.30;52374.72;5062915;28;20296;-58
2022/05/08 01:31:31;;;;;;;;;;;;;;;-144.99;92.22;52433.81;5060020;28;19944;-57
2022/05/08 01:33:57;;;;;;;;;;;;;;;-144.99;92.18;52405.28;5052988;28;20401;-60
2022/05/08 01:36:23;;;;;;;;;;;;;;;-144.99;92.03;52382.88;5059649;28;20716;-58
2022/05/08 01:38:51;;;;;;;;;;;;;;;-144.99;92.21;52407.31;5058308;28;19962;-60
2022/05/08 01:41:18;;;;;;;;;;;;;;;-144.99;92.67;52399.19;5052508;28;19950;-60
2022/05/08 01:43:44;;;;;;;;;;;;;;;-144.99;93.26;52433.81;5050726;28;20444;-60
2022/05/08 01:46:12;;;;;;;;;;;;;;;-144.99;93.21;52419.56;5059348;28;19977;-60
2022/05/08 01:48:37;;;;;;;;;;;;;;;-144.99;93.71;52403.25;5054625;28;20061;-59
2022/05/08 01:51:04;;;;;;;;;;;;;;;-144.99;94.32;52382.88;5053480;28;20048;-58
2022/05/08 01:53:32;;;;;;;;;;;;;;;-144.99;94.19;52391.03;5060952;28;20298;-59
2022/05/08 01:56:02;;;;;;;;;;;;;;;-144.99;94.16;52407.31;5055030;28;20419;-63
2022/05/08 01:58:31;;;;;;;;;;;;;;;-144.99;94.64;52370.63;5056699;28;20007;-61
2022/05/08 02:00:58;;;;;;;;;;;;;;;-144.99;94.78;52435.88;5052598;28;19954;-62
2022/05/08 02:03:25;;;;;;;;;;;;;;;-144.99;95.22;52407.31;5056551;28;19994;-60
2022/05/08 02:05:51;;;;;;;;;;;;;;;-144.99;95.32;52415.47;5052649;28;20487;-61
2022/05/08 02:08:18;;;;;;;;;;;;;;;-144.99;95.07;52395.09;5057715;28;19971;-61
2022/05/08 02:10:44;;;;;;;;;;;;;;;-144.99;95.20;52407.31;5057510;28;19969;-62
2022/05/08 02:13:12;;;;;;;;;;;;;;;-144.99;95.27;52427.72;5050652;28;19964;-63
2022/05/08 02:15:39;;;;;;;;;;;;;;;-144.99;95.18;52415.47;5057618;28;20307;-62
2022/05/08 02:18:06;;;;;;;;;;;;;;;-144.99;95.49;52423.63;5064963;28;20380;-59
2022/05/08 02:20:33;;;;;;;;;;;;;;;-144.99;95.40;52386.94;5055999;28;19957;-62
2022/05/08 02:22:59;;;;;;;;;;;;;;;-144.99;95.78;52403.25;5061292;28;19951;-59
2022/05/08 02:25:26;;;;;;;;;;;;;;;-144.99;95.23;52407.31;5054768;28;19963;-60
2022/05/08 02:27:52;;;;;;;;;;;;;;;-144.99;95.18;52384.91;5059908;28;19975;-60
2022/05/08 02:30:25;;;;;;;;;;;;;;;-144.99;95.37;52395.09;5054558;28;19971;-60
2022/05/08 02:32:53;;;;;;;;;;;;;;;-144.99;95.32;52435.88;5053653;28;20128;-60
2022/05/08 02:35:20;;;;;;;;;;;;;;;-144.99;95.14;52431.78;5062917;28;20005;-61
2022/05/08 02:37:48;;;;;;;;;;;;;;;-144.99;95.33;52378.78;5055131;28;19982;-58
2022/05/08 02:40:15;;;;;;;;;;;;;;;-144.99;95.13;52427.72;5058764;28;19961;-59
2022/05/08 02:42:42;;;;;;;;;;;;;;;-144.99;94.55;52399.19;5058941;28;19948;-61
2022/05/08 02:45:09;;;;;;;;;;;;;;;-144.99;94.86;52399.19;5050493;28;19974;-59
2022/05/08 02:47:37;;;;;;;;;;;;;;;-144.99;94.85;52405.28;5051511;28;19999;-68
2022/05/08 02:50:04;;;;;;;;;;;;;;;-144.99;94.72;52403.25;5060429;28;19975;-62
2022/05/08 02:52:31;;;;;;;;;;;;;;;-144.99;94.58;52382.88;5052609;28;19968;-62
2022/05/08 02:54:57;;;;;;;;;;;;;;;-144.99;94.81;52423.63;5054158;28;19961;-62
2022/05/08 03:00:08;;;;;;;;;;;;;;;-144.99;95.85;52435.88;5052231;28;19974;-61
2022/05/08 03:02:35;;;;;;;;;;;;;;;-144.99;96.02;52423.63;5053034;28;19965;-61
2022/05/08 03:05:03;;;;;;;;;;;;;;;-144.99;96.32;52419.56;5060436;28;19961;-62
2022/05/08 03:07:30;;;;;;;;;;;;;;;-144.99;96.54;52427.72;5053407;28;20096;-62
2022/05/08 03:09:57;;;;;;;;;;;;;;;-144.99;96.98;52423.63;5051976;28;19967;-62
2022/05/08 03:12:23;;;;;;;;;;;;;;;-144.99;97.26;52362.50;5052068;28;20013;-62
2022/05/08 03:14:50;;;;;;;;;;;;;;;-144.99;97.19;52391.03;5048819;28;19988;-60
2022/05/08 03:17:16;;;;;;;;;;;;;;;-144.99;97.16;52403.25;5058467;28;19975;-61
2022/05/08 03:19:43;;;;;;;;;;;;;;;-144.99;96.45;52415.47;5049635;28;19967;-61
2022/05/08 03:22:10;;;;;;;;;;;;;;;-144.99;95.98;52386.94;5052991;28;20285;-59
2022/05/08 03:24:37;;;;;;;;;;;;;;;-144.99;96.04;52407.31;5056927;28;19971;-60
2022/05/08 03:27:03;;;;;;;;;;;;;;;-144.99;95.90;52427.72;5051672;28;19977;-62
2022/05/08 03:29:30;;;;;;;;;;;;;;;-144.99;95.40;52407.31;5052464;28;19972;-62
2022/05/08 03:31:56;;;;;;;;;;;;;;;-144.99;94.78;52419.56;4708747;28;10000555;-62
2022/05/08 03:34:22;;;;;;;;;;;;;;;-144.99;94.56;52439.94;5047726;28;19962;-62
2022/05/08 03:36:49;;;;;;;;;;;;;;;-144.99;94.27;52423.63;5055500;28;20032;-62
2022/05/08 03:39:17;;;;;;;;;;;;;;;-144.99;94.51;52399.19;5050645;28;20216;-62
2022/05/08 03:41:43;;;;;;;;;;;;;;;-144.99;94.22;52399.19;5062149;28;20471;-61
2022/05/08 03:44:09;;;;;;;;;;;;;;;-144.99;94.57;52413.44;5062663;22;19943;-68
2022/05/08 03:46:36;;;;;;;;;;;;;;;-144.99;95.26;52444.03;5010840;28;19993;-70
2022/05/08 03:49:02;;;;;;;;;;;;;;;-144.99;96.09;52429.75;4999253;28;19962;-70
2022/05/08 03:51:29;;;;;;;;;;;;;;;-144.99;96.85;52419.56;5008689;28;19990;-68
2022/05/08 03:53:55;;;;;;;;;;;;;;;-144.99;97.03;52439.94;5011525;28;20317;-68
2022/05/08 03:56:23;;;;;;;;;;;;;;;-144.99;97.37;52403.25;5018327;28;19986;-68
2022/05/08 03:58:49;;;;;;;;;;;;;;;-144.99;97.99;52376.75;5002884;28;19958;-68
2022/05/08 04:01:16;;;;;;;;;;;;;;;-144.99;98.20;52395.09;5009148;28;19957;-69
2022/05/08 04:03:42;;;;;;;;;;;;;;;-144.99;98.08;52427.72;5003567;28;19973;-69
2022/05/08 04:06:08;;;;;;;;;;;;;;;-144.99;98.05;52435.88;5010857;28;20138;-69
2022/05/08 04:08:35;;;;;;;;;;;;;;;-144.99;98.26;52374.72;5006253;28;19979;-69
2022/05/08 04:11:01;;;;;;;;;;;;;;;-144.99;98.23;52386.94;5002260;28;19958;-69
2022/05/08 04:13:29;;;;;;;;;;;;;;;-144.99;98.19;52386.94;5010280;28;20033;-69
2022/05/08 04:18:40;;;;;;;;;;;;;;;-144.99;97.74;52427.72;5005195;28;20442;-69
2022/05/08 04:21:06;;;;;;;;;;;;;;;-144.99;97.51;52413.44;5000528;28;20326;-70
2022/05/08 04:26:16;;;;;;;;;;;;;;;-144.99;97.25;52407.31;5000975;28;19989;-69
2022/05/08 04:28:44;;;;;;;;;;;;;;;-144.99;97.27;52395.09;4998739;28;19956;-69
2022/05/08 04:31:11;;;;;;;;;;;;;;;-144.99;97.10;52419.56;5010087;28;20048;-69
2022/05/08 04:33:37;;;;;;;;;;;;;;;-144.99;96.95;52397.13;5005086;28;19952;-68
2022/05/08 04:36:03;;;;;;;;;;;;;;;-144.99;96.47;52378.78;5010147;28;19957;-68
2022/05/08 04:38:30;;;;;;;;;;;;;;;-144.99;96.47;52407.31;5008134;28;19964;-68
2022/05/08 04:40:56;;;;;;;;;;;;;;;-144.99;96.50;52415.47;4999178;28;19968;-69
2022/05/08 04:43:22;;;;;;;;;;;;;;;-144.99;96.54;52356.38;5005115;28;19947;-69
2022/05/08 04:45:50;;;;;;;;;;;;;;;-144.99;96.42;52366.56;5009634;28;20445;-69
2022/05/08 04:48:17;;;;;;;;;;;;;;;-144.99;96.42;52403.25;5003881;28;19958;-69
2022/05/08 04:50:43;;;;;;;;;;;;;;;-144.99;96.42;52419.56;5008434;28;19947;-67
2022/05/08 04:53:09;;;;;;;;;;;;;;;-144.99;96.06;52399.19;5009143;28;20435;-68
2022/05/08 04:55:36;;;;;;;;;;;;;;;-144.99;95.87;52386.94;5010441;28;19972;-68
2022/05/08 04:58:02;;;;;;;;;;;;;;;-144.99;95.34;52360.44;5004250;28;19971;-68
2022/05/08 05:00:29;;;;;;;;;;;;;;;-144.99;93.93;52378.78;5008377;28;19949;-71
2022/05/08 05:02:57;;;;;;;;;;;;;;;-144.99;93.42;52403.25;5000548;28;20211;-71
2022/05/08 05:05:24;;;;;;;;;;;;;;;-144.99;93.40;52388.97;5007044;28;19950;-71
2022/05/08 05:07:51;;;;;;;;;;;;;;;-144.99;93.45;52368.59;5009830;28;19994;-70
2022/05/08 05:10:17;;;;;;;;;;;;;;;-144.99;93.29;52378.78;4996424;28;19959;-70
2022/05/08 05:12:44;;;;;;;;;;;;;;;-144.99;92.07;52370.63;5001557;28;19975;-70
2022/05/08 05:15:11;;;;;;;;;;;;;;;-144.99;91.75;52378.78;5007413;28;19957;-70
2022/05/08 05:17:37;;;;;;;;;;;;;;;-144.99;91.63;52368.59;5004920;28;20402;-72
2022/05/08 05:20:06;;;;;;;;;;;;;;;-144.99;90.77;52395.09;5009173;28;19944;-72
2022/05/08 05:22:32;;;;;;;;;;;;;;;-144.99;89.67;52350.25;5008326;28;19945;-70
2022/05/08 05:24:59;;;;;;;;;;;;;;;-144.99;88.21;52382.88;5004329;28;19942;-70
2022/05/08 05:27:25;;;;;;;;;;;;;;;-144.99;87.41;52358.41;5008850;28;19965;-71
2022/05/08 05:29:52;;;;;;;;;;;;;;;-144.99;86.73;52399.19;5009100;28;20297;-72
2022/05/08 05:32:19;;;;;;;;;;;;;;;-144.99;86.01;52378.78;5020228;28;19942;-71
2022/05/08 05:34:45;;;;;;;;;;;;;;;-144.99;85.47;52391.03;5020815;28;20459;-71
2022/05/08 05:37:13;;;;;;;;;;;;;;;-144.99;84.70;52346.19;5008648;28;19960;-71
2022/05/08 05:39:39;;;;;;;;;;;;;;;-144.99;84.66;52362.50;5008367;28;19949;-71
2022/05/08 05:42:06;;;;;;;;;;;;;;;-144.99;83.02;52366.56;5014065;28;20104;-71
2022/05/08 05:44:32;;;;;;;;;;;;;;;-144.99;82.55;52358.41;5011474;28;19977;-71
2022/05/08 05:49:42;;;;;;;;;;;;;;;-144.99;81.44;52325.81;5024154;28;19952;-68
2022/05/08 05:52:09;;;;;;;;;;;;;;;-144.99;80.08;52346.19;5008145;28;20009;-67
2022/05/08 05:54:36;;;;;;;;;;;;;;;-144.99;78.56;52354.34;5005149;28;19958;-68
2022/05/08 05:57:03;;;;;;;;;;;;;;;-144.99;78.84;52338.03;5000247;28;19964;-68
2022/05/08 05:59:30;;;;;;;;;;;;;;;-144.99;78.17;52346.19;5007168;28;19954;-69
2022/05/08 06:01:56;;;;;;;;;;;;;;;-144.99;76.79;52338.03;5012315;28;19949;-69
2022/05/08 06:04:22;;;;;;;;;;;;;;;-144.99;76.89;52336.00;5011262;28;19940;-69
2022/05/08 06:06:49;;;;;;;;;;;;;;;-144.99;76.04;52360.44;5005148;28;19970;-69
2022/05/08 06:09:15;;;;;;;;;;;;;;;-144.99;74.98;52325.81;5010268;28;19945;-68
2022/05/08 06:11:44;;;;;;;;;;;;;;;-144.99;74.75;52325.81;5006640;28;19946;-69
2022/05/08 06:14:10;;;;;;;;;;;;;;;-144.99;73.68;52352.28;5008054;28;20024;-68
2022/05/08 06:16:36;;;;;;;;;;;;;;;-144.99;73.17;52344.16;5011198;28;19969;-68
2022/05/08 06:19:03;;;;;;;;;;;;;;;-144.99;72.79;52358.41;5005761;28;19933;-68
2022/05/08 06:21:29;;;;;;;;;;;;;;;-144.99;72.37;52285.03;5008656;28;20402;-68
2022/05/08 06:23:55;;;;;;;;;;;;;;;-144.99;71.64;52338.03;5003705;28;20405;-68
2022/05/08 06:26:22;;;;;;;;;;;;;;;-144.99;70.76;52350.25;5009386;28;19960;-68
2022/05/08 06:28:50;;;;;;;;;;;;;;;-144.99;70.26;52305.41;5007837;28;19948;-68
2022/05/08 06:31:17;;;;;;;;;;;;;;;-144.99;70.09;52317.66;5010879;28;20443;-69
2022/05/08 06:33:43;;;;;;;;;;;;;;;-144.99;69.49;52313.56;5005514;28;19968;-68
2022/05/08 06:36:10;;;;;;;;;;;;;;;-144.99;69.23;52350.25;5011677;28;19926;-68
2022/05/08 06:38:36;;;;;;;;;;;;;;;-144.99;67.75;52356.38;5005071;28;19925;-68
2022/05/08 06:41:03;;;;;;;;;;;;;;;-144.99;66.07;52350.25;5004038;28;19929;-70
2022/05/08 06:43:29;;;;;;;;;;;;;;;-144.99;65.70;52323.75;5009587;28;19952;-70
2022/05/08 06:45:57;;;;;;;;;;;;;;;-144.99;64.87;52338.03;5019603;28;19939;-71
2022/05/08 06:48:23;;;;;;;;;;;;;;;-144.99;64.39;52293.19;5019227;28;19926;-71
2022/05/08 06:50:49;;;;;;;;;;;;;;;-144.99;63.97;52297.25;5013047;28;19937;-71
2022/05/08 06:53:16;;;;;;;;;;;;;;;-144.99;62.85;52333.94;5007539;28;19925;-72
2022/05/08 06:55:45;;;;;;;;;;;;;;;-144.99;62.20;52287.06;5012910;28;20389;-73
2022/05/08 06:58:12;;;;;;;;;;;;;;;-144.99;61.75;52297.25;5002830;28;20005;-71
2022/05/08 07:03:24;;;;;;;;;;;;;;;-144.99;60.55;52268.72;5002319;28;20019;-73
2022/05/08 07:05:51;;;;;;;;;;;;;;;-144.99;60.08;52301.34;5006505;28;20371;-71
2022/05/08 07:08:17;;;;;;;;;;;;;;;-144.99;59.48;52319.69;5005237;28;19963;-71
2022/05/08 07:10:44;;;;;;;;;;;;;;;-144.99;58.61;52321.72;5015116;28;19925;-70
2022/05/08 07:13:10;;;;;;;;;;;;;;;-144.99;58.27;52329.88;5002971;28;19952;-71
2022/05/08 07:15:37;;;;;;;;;;;;;;;-144.99;58.24;52317.66;5003896;28;19925;-71
2022/05/08 07:18:03;;;;;;;;;;;;;;;-144.99;58.22;52285.03;5001991;28;20379;-71
2022/05/08 07:20:31;;;;;;;;;;;;;;;-144.99;57.75;52307.47;4999622;28;19929;-70
2022/05/08 07:22:57;;;;;;;;;;;;;;;-144.99;57.09;52280.97;5007916;28;19944;-70
2022/05/08 07:25:23;;;;;;;;;;;;;;;-144.99;56.83;52264.66;5005558;28;20371;-69
2022/05/08 07:27:51;;;;;;;;;;;;;;;-144.99;56.17;52289.13;5005403;28;19926;-69
2022/05/08 07:30:18;;;;;;;;;;;;;;;-144.99;56.00;52283.00;5007167;28;19929;-69
2022/05/08 07:32:48;;;;;;;;;;;;;;;-144.99;55.50;52289.13;5008716;28;20317;-69
2022/05/08 07:38:00;;;;;;;;;;;;;;;-144.99;54.68;52293.19;5006855;28;19975;-69
2022/05/08 07:40:29;;;;;;;;;;;;;;;-144.99;54.77;52240.19;5010303;28;20378;-69
2022/05/08 07:42:55;;;;;;;;;;;;;;;-144.99;54.09;52289.13;5010459;28;19925;-69
2022/05/08 07:45:22;;;;;;;;;;;;;;;-144.99;53.61;52297.25;5008499;28;19962;-69
2022/05/08 07:47:49;;;;;;;;;;;;;;;-144.99;53.46;52266.69;5004340;28;19936;-69
2022/05/08 07:50:15;;;;;;;;;;;;;;;-144.99;52.57;52297.25;5007377;28;19929;-70
2022/05/08 07:52:41;;;;;;;;;;;;;;;-144.99;52.55;52256.50;5007438;28;19940;-69
2022/05/08 07:55:09;;;;;;;;;;;;;;;-144.99;51.93;52264.66;5002379;28;20279;-69
2022/05/08 07:57:36;;;;;;;;;;;;;;;-144.99;51.83;52260.56;5005323;28;19926;-69
2022/05/08 08:00:03;;;;;;;;;;;;;;;-144.99;51.52;52285.03;5004295;28;19925;-66
2022/05/08 08:02:29;;;;;;;;;;;;;;;-144.99;51.59;52262.63;4995569;28;19929;-70
2022/05/08 08:04:56;;;;;;;;;;;;;;;-144.99;51.88;52252.44;5000156;28;19932;-70
2022/05/08 08:07:22;;;;;;;;;;;;;;;-144.99;52.23;52276.88;5003125;28;19925;-69
2022/05/08 08:09:49;;;;;;;;;;;;;;;-144.99;51.74;52264.66;5003237;28;19933;-69
2022/05/08 08:12:16;;;;;;;;;;;;;;;-144.99;51.97;52260.56;5000644;28;20005;-69
2022/05/08 08:14:43;;;;;;;;;;;;;;;-144.99;51.19;52248.34;5002349;28;19926;-70
2022/05/08 08:17:09;;;;;;;;;;;;;;;-144.99;50.37;52248.34;5008041;28;20031;-70
2022/05/08 08:19:36;;;;;;;;;;;;;;;-144.99;49.00;52183.13;5004085;28;19931;-70
2022/05/08 08:22:02;;;;;;;;;;;;;;;-144.99;49.37;52278.91;5004196;28;19926;-70
2022/05/08 08:24:28;;;;;;;;;;;;;;;-144.99;50.10;52219.81;5003518;28;20160;-71
2022/05/08 08:26:55;;;;;;;;;;;;;;;-144.99;47.85;52262.63;5003116;28;19926;-67
2022/05/08 08:29:22;;;;;;;;;;;;;;;-144.99;48.46;52256.50;5007297;28;19933;-67
2022/05/08 08:31:49;;;;;;;;;;;;;;;-144.99;47.55;52217.78;5003711;28;19930;-68
2022/05/08 08:34:15;;;;;;;;;;;;;;;-144.99;46.79;52252.44;5007233;28;20370;-67
2022/05/08 08:36:42;;;;;;;;;;;;;;;-144.99;47.19;52240.19;5007522;28;19971;-67
2022/05/08 08:39:08;;;;;;;;;;;;;;;-144.99;47.37;52244.28;5006764;28;19940;-67
2022/05/08 08:41:36;;;;;;;;;;;;;;;-144.99;48.02;52238.16;5004722;28;20597;-70
2022/05/08 08:49:40;;;;;;;;;;;;;;;-144.99;46.03;52209.63;5008063;28;20421;-67
2022/05/08 08:52:06;;;;;;;;;;;;;;;-144.99;44.83;52209.63;5000321;28;19926;-68
2022/05/08 08:54:34;;;;;;;;;;;;;;;-144.99;45.01;52221.84;5007032;28;19925;-67
2022/05/08 08:57:01;;;;;;;;;;;;;;;-144.99;44.47;52223.88;5003520;28;19926;-68
2022/05/08 08:59:27;;;;;;;;;;;;;;;-144.99;44.75;52207.59;5000957;28;19933;-68
2022/05/08 09:01:55;;;;;;;;;;;;;;;-144.99;44.61;52207.59;5007616;28;19932;-67
2022/05/08 09:04:22;;;;;;;;;;;;;;;-144.99;43.98;52207.59;5002225;28;20287;-67
2022/05/08 09:06:49;;;;;;;;;;;;;;;-144.99;43.78;52215.75;5007568;28;19926;-67
2022/05/08 09:09:23;;;;;;;;;;;;;;;-144.99;43.77;52211.66;5000531;28;19979;-67
2022/05/08 09:11:49;;;;;;;;;;;;;;;-144.99;42.88;52191.28;5004722;28;19932;-67
2022/05/08 09:14:27;;;;;;;;;;;;;;;-144.99;43.54;52256.50;5007567;28;19940;-67
2022/05/08 09:16:55;;;;;;;;;;;;;;;-144.99;43.08;52183.13;5000997;28;19926;-67
2022/05/08 09:19:29;;;;;;;;;;;;;;;-144.99;42.71;52219.81;5003135;28;20421;-70
2022/05/08 09:21:58;;;;;;;;;;;;;;;-144.99;42.72;52203.50;5009879;28;20024;-69
2022/05/08 09:24:24;;;;;;;;;;;;;;;-144.99;42.33;52146.44;5005548;28;19929;-70
2022/05/08 09:26:51;;;;;;;;;;;;;;;-144.99;42.09;52207.59;5008801;28;19925;-70
2022/05/08 09:29:21;;;;;;;;;;;;;;;-144.99;41.87;52191.28;5001366;28;19929;-69
2022/05/08 09:31:47;;;;;;;;;;;;;;;-144.99;41.49;52191.28;5009125;28;20149;-69
2022/05/08 09:34:15;;;;;;;;;;;;;;;-144.99;41.69;52195.34;4995355;28;19925;-69
2022/05/08 09:36:42;;;;;;;;;;;;;;;-144.99;41.70;52211.66;5013050;28;19929;-69
2022/05/08 09:39:08;;;;;;;;;;;;;;;-144.99;41.88;52183.13;5002792;28;20394;-69
2022/05/08 09:41:36;;;;;;;;;;;;;;;-144.99;40.98;52158.66;5010701;28;19925;-72
2022/05/08 09:44:10;;;;;;;;;;;;;;;-144.99;40.99;52199.44;5003983;28;19926;-70
2022/05/08 09:46:36;;;;;;;;;;;;;;;-144.99;41.57;52197.41;5000294;28;20406;-70
2022/05/08 09:49:03;;;;;;;;;;;;;;;-144.99;41.96;52240.19;5020237;22;19926;-65
2022/05/08 09:51:33;;;;;;;;;;;;;;;-144.99;41.95;52207.59;5035408;28;19940;-64
2022/05/08 09:54:00;;;;;;;;;;;;;;;-144.99;41.83;52174.97;5040019;28;20337;-64
2022/05/08 09:56:26;;;;;;;;;;;;;;;-144.99;42.55;52162.75;5031151;28;19947;-67
2022/05/08 09:58:53;;;;;;;;;;;;;;;-144.99;42.73;52207.59;5016279;28;19932;-68
2022/05/08 10:01:19;;;;;;;;;;;;;;;-144.99;42.96;52174.97;5018672;28;19933;-71
2022/05/08 10:03:46;;;;;;;;;;;;;;;-144.99;42.05;52162.75;5013741;28;20408;-71
2022/05/08 10:06:14;;;;;;;;;;;;;;;-144.99;41.27;52199.44;5018070;28;19980;-70
2022/05/08 10:08:43;;;;;;;;;;;;;;;-144.99;41.40;52211.66;5018948;28;19932;-71
2022/05/08 10:13:55;;;;;;;;;;;;;;;-144.99;41.67;52179.06;5004925;28;20007;-70
2022/05/08 10:16:40;;;;;;;;;;;;;;;-144.99;41.14;52146.44;5011819;28;19995;-70
2022/05/08 10:19:33;;;;;;;;;;;;;;;-144.99;41.09;52166.81;5013248;28;19936;-70
2022/05/08 10:22:05;;;;;;;;;;;;;;;-144.99;40.91;52152.56;4948680;28;19926;-70
2022/05/08 10:24:34;;;;;;;;;;;;;;;-144.99;40.13;52107.72;5023344;28;19992;-70
2022/05/08 10:27:10;;;;;;;;;;;;;;;-144.99;40.08;52095.50;5013573;28;19925;-70
2022/05/08 10:29:36;;;;;;;;;;;;;;;-144.99;39.70;52130.13;5015649;28;19965;-70
2022/05/08 10:32:05;;;;;;;;;;;;;;;-144.99;39.52;52081.22;5020302;28;20028;-71
2022/05/08 10:34:32;;;;;;;;;;;;;;;-144.99;39.46;52117.91;5012922;28;19925;-70
2022/05/08 10:37:17;;;;;;;;;;;;;;;-144.99;39.28;52081.22;5012956;28;19926;-71
2022/05/08 10:39:46;;;;;;;;;;;;;;;-144.99;39.15;52064.91;5006385;28;19926;-71
2022/05/08 10:42:28;;;;;;;;;;;;;;;-144.99;38.49;52085.31;5008874;28;19943;-71
2022/05/08 10:44:54;;;;;;;;;;;;;;;-144.99;37.96;52058.81;5007273;28;19932;-72
2022/05/08 10:47:41;;;;;;;;;;;;;;;-144.99;38.15;52064.91;5012095;28;19960;-71
2022/05/08 10:50:08;;;;;;;;;;;;;;;-144.99;38.36;52060.84;5012290;28;19968;-71
2022/05/08 10:52:39;;;;;;;;;;;;;;;-144.99;37.56;52038.44;5013330;28;19929;-71
2022/05/08 10:55:08;;;;;;;;;;;;;;;-144.99;37.54;52050.66;5013307;28;19932;-71
2022/05/08 10:57:35;;;;;;;;;;;;;;;-144.99;37.49;52060.84;5011060;28;19932;-71
2022/05/08 11:00:03;;;;;;;;;;;;;;;-144.99;37.03;52056.78;5013082;28;19931;-70
2022/05/08 11:02:44;;;;;;;;;;;;;;;-144.99;37.83;52032.31;5006579;28;20345;-70
2022/05/08 11:05:11;;;;;;;;;;;;;;;-144.99;37.42;52020.09;5007669;28;19925;-70
2022/05/08 11:07:38;;;;;;;;;;;;;;;-144.99;37.79;52003.78;5011754;28;19933;-72
2022/05/08 11:10:14;;;;;;;;;;;;;;;-144.99;37.14;52003.78;5012156;28;19925;-70
2022/05/08 11:12:55;;;;;;;;;;;;;;;-144.99;36.59;52038.44;5009183;28;19951;-69
2022/05/08 11:15:23;;;;;;;;;;;;;;;-144.99;36.75;52034.34;5021043;28;19955;-70
2022/05/08 11:18:02;;;;;;;;;;;;;;;-144.99;36.83;51989.50;5012871;28;19932;-70
2022/05/08 11:20:28;;;;;;;;;;;;;;;-144.99;36.44;52032.31;4310697;28;10000954;-70
2022/05/08 11:22:54;;;;;;;;;;;;;;;-144.99;36.24;52020.09;5007186;28;20326;-70
2022/05/08 11:25:21;;;;;;;;;;;;;;;-144.99;36.92;51997.66;5008654;28;20393;-70
2022/05/08 11:27:51;;;;;;;;;;;;;;;-144.99;37.10;52042.50;5007006;28;19952;-72
2022/05/08 11:30:26;;;;;;;;;;;;;;;-144.99;36.22;52001.75;5010953;28;19929;-72
2022/05/08 11:38:22;;;;;;;;;;;;;;;-144.99;34.79;52024.16;5008620;28;20462;-71
2022/05/08 11:40:49;;;;;;;;;;;;;;;-144.99;34.81;52050.66;5007532;28;19979;-70
2022/05/08 11:43:30;;;;;;;;;;;;;;;-144.99;34.90;52036.38;5012268;28;19930;-72
2022/05/08 11:45:57;;;;;;;;;;;;;;;-144.99;35.03;52040.47;5006994;28;19941;-71
2022/05/08 11:48:33;;;;;;;;;;;;;;;-144.99;34.73;52048.63;5005956;28;19933;-71
2022/05/08 11:50:59;;;;;;;;;;;;;;;-144.99;35.01;52036.38;5007871;28;19972;-71
2022/05/08 11:53:25;;;;;;;;;;;;;;;-144.99;34.94;52064.91;5008334;28;20028;-71
2022/05/08 11:55:52;;;;;;;;;;;;;;;-144.99;35.36;52044.53;5014547;28;19930;-70
2022/05/08 11:58:30;;;;;;;;;;;;;;;-144.99;34.20;52060.84;5006128;28;19929;-71
2022/05/08 12:00:56;;;;;;;;;;;;;;;-144.99;35.09;52107.72;5015653;28;20023;-72
2022/05/08 12:03:26;;;;;;;;;;;;;;;-144.99;35.40;52034.34;5008039;28;19929;-71
2022/05/08 12:06:08;;;;;;;;;;;;;;;-144.99;35.40;52064.91;5005311;28;19929;-72
2022/05/08 12:08:35;;;;;;;;;;;;;;;-144.99;34.54;52060.84;5007732;28;19925;-70
2022/05/08 12:11:02;;;;;;;;;;;;;;;-144.99;35.00;52091.41;5006076;28;19929;-72
2022/05/08 12:13:33;;;;;;;;;;;;;;;-144.99;34.68;52062.88;5007854;28;19929;-70
2022/05/08 12:16:11;;;;;;;;;;;;;;;-144.99;34.01;52048.63;5005662;28;19930;-71
2022/05/08 12:18:37;;;;;;;;;;;;;;;-144.99;34.41;52093.44;5005266;28;20374;-70
2022/05/08 12:21:03;;;;;;;;;;;;;;;-144.99;34.56;52071.03;5003948;28;20322;-70
2022/05/08 12:23:30;;;;;;;;;;;;;;;-144.99;34.32;52056.78;5005534;28;19933;-70
2022/05/08 12:25:59;;;;;;;;;;;;;;;-144.99;34.17;52077.16;5007403;28;19925;-70
2022/05/08 12:28:25;;;;;;;;;;;;;;;-144.99;34.50;52052.69;4994929;28;19984;-71
2022/05/08 12:30:52;;;;;;;;;;;;;;;-144.99;34.15;52052.69;5006262;28;19976;-70
2022/05/08 12:33:18;;;;;;;;;;;;;;;-144.99;33.98;52077.16;4998441;28;19936;-70
2022/05/08 12:35:44;;;;;;;;;;;;;;;-144.99;34.43;52150.53;5004475;28;19936;-70
2022/05/08 12:38:11;;;;;;;;;;;;;;;-144.99;34.81;52146.44;5007438;28;20717;-72
2022/05/08 12:40:39;;;;;;;;;;;;;;;-144.99;35.58;52121.97;5010269;28;19956;-68
2022/05/08 12:43:08;;;;;;;;;;;;;;;-144.99;35.43;52089.38;5004997;28;20021;-71
2022/05/08 12:45:37;;;;;;;;;;;;;;;-144.99;34.74;52126.06;5006903;28;19930;-71
2022/05/08 12:48:06;;;;;;;;;;;;;;;-144.99;35.25;52162.75;5004213;28;20132;-71
2022/05/08 12:50:32;;;;;;;;;;;;;;;-144.99;34.47;52081.22;5004672;28;19940;-71
2022/05/08 12:52:59;;;;;;;;;;;;;;;-144.99;34.85;52130.13;5005481;28;20318;-71
2022/05/08 12:55:25;;;;;;;;;;;;;;;-144.99;35.16;52109.75;5005669;28;19975;-71
2022/05/08 13:00:45;;;;;;;;;;;;;;;-144.99;34.16;52121.97;4971158;28;20307;-70